Time;durP1;ratioP1;P1;durP2;ratioP2;P2;SDS_P1;SDS_P2;PMS_P1;PMS_P2;Temp;Humidity;BMP_temperature;BMP_pressure;BME280_temperature;BME280_humidity;BME280_pressure;Samples;Min_cycle;Max_cycle;Signal;HPM_P1;HPM_P2
2022/04/29 03:12:00;;;;;;;14.20;10.15;;;7.80;1.00;;;;;;6213113;22;20245;-81
2022/04/29 03:27:38;;;;;;;20.30;11.95;;;7.60;1.00;;;;;;6112760;23;20242;-80
2022/04/29 03:57:58;;;;;;;14.93;10.68;;;7.60;1.00;;;;;;5890414;24;21021;-83
2022/04/29 04:57:51;;;;;;;24.33;12.97;;;8.90;1.00;;;;;;6014793;23;33162;-85
2022/04/29 05:00:18;;;;;;;18.33;10.47;;;8.90;1.00;;;;;;6122864;23;20215;-85
2022/04/29 05:02:48;;;;;;;21.37;10.03;;;9.00;1.00;;;;;;6190301;22;21325;-85
2022/04/29 05:05:14;;;;;;;18.30;10.10;;;9.10;1.00;;;;;;6213145;22;20467;-85
2022/04/29 05:07:49;;;;;;;24.77;10.40;;;9.30;1.00;;;;;;6207681;22;20991;-85
2022/04/29 05:10:18;;;;;;;21.63;10.87;;;9.40;1.00;;;;;;6209512;22;20891;-83
2022/04/29 05:13:17;;;;;;;18.37;9.60;;;9.50;1.00;;;;;;6205807;22;20438;-84
2022/04/29 05:15:50;;;;;;;19.63;10.07;;;9.70;1.00;;;;;;6086578;23;20436;-85
2022/04/29 05:18:18;;;;;;;18.30;9.97;;;9.90;1.00;;;;;;6197538;22;20408;-84
2022/04/29 05:20:52;;;;;;;20.20;8.97;;;10.10;1.00;;;;;;6212800;22;20444;-84
2022/04/29 05:29:37;;;;;;;19.00;8.47;;;10.60;1.00;;;;;;6200064;22;21068;-84
2022/04/29 05:32:37;;;;;;;13.13;6.83;;;10.80;1.00;;;;;;6111863;23;21157;-84
2022/04/29 05:45:49;;;;;;;18.10;7.63;;;11.40;1.00;;;;;;6052779;23;20443;-86
2022/04/29 05:48:18;;;;;;;11.60;5.80;;;11.60;1.00;;;;;;6143000;23;21371;-86
2022/04/29 05:50:50;;;;;;;19.87;6.87;;;11.80;1.00;;;;;;6183980;22;20433;-85
2022/04/29 05:53:20;;;;;;;15.23;6.83;;;11.90;1.00;;;;;;6190114;22;20861;-84
2022/04/29 05:56:30;;;;;;;;;;;;;;;;;;;;;
2022/04/29 06:18:39;;;;;;;14.23;9.20;;;12.50;1.00;;;;;;6029613;23;20217;-83
2022/04/29 06:21:58;;;;;;;10.90;5.40;;;12.70;1.00;;;;;;6059769;23;20474;-84
2022/04/29 06:24:28;;;;;;;11.73;4.67;;;12.90;1.00;;;;;;6140580;23;20461;-84
2022/04/29 06:27:10;;;;;;;14.60;5.80;;;13.00;1.00;;;;;;6208352;23;20429;-84
2022/04/29 06:29:38;;;;;;;21.60;5.50;;;13.10;1.00;;;;;;6196452;23;20418;-84
2022/04/29 06:32:19;;;;;;;14.23;5.60;;;13.20;1.00;;;;;;6185418;22;20534;-84
2022/04/29 06:38:00;;;;;;;13.33;4.63;;;13.50;1.00;;;;;;6166152;22;20499;-83
2022/04/29 06:41:01;;;;;;;;;;;;;;;;;;;;;
2022/04/29 06:43:47;;;;;;;13.83;5.37;;;13.60;1.00;;;;;;6186780;23;49876;-84
2022/04/29 06:46:19;;;;;;;14.30;5.10;;;13.80;1.00;;;;;;6210291;22;20503;-83
2022/04/29 06:48:49;;;;;;;12.77;4.83;;;13.80;1.00;;;;;;6209948;22;20442;-84
2022/04/29 06:51:19;;;;;;;10.77;4.50;;;13.90;1.00;;;;;;6209468;22;20541;-83
2022/04/29 06:53:45;;;;;;;12.50;5.17;;;14.00;1.00;;;;;;6206719;22;20512;-84
2022/04/29 06:56:16;;;;;;;11.40;5.23;;;14.00;1.00;;;;;;6212021;22;20434;-86
2022/04/29 06:58:49;;;;;;;17.60;5.30;;;14.10;1.00;;;;;;6210593;22;20443;-83
2022/04/29 07:01:22;;;;;;;10.90;4.27;;;14.20;1.00;;;;;;6211049;22;20423;-84
2022/04/29 07:03:49;;;;;;;11.27;3.43;;;14.40;1.00;;;;;;6208698;22;21301;-84
2022/04/29 07:06:19;;;;;;;13.80;4.90;;;14.60;1.00;;;;;;6210590;22;20832;-84
2022/04/29 07:08:50;;;;;;;14.50;4.97;;;14.80;1.00;;;;;;6211652;22;20943;-85
2022/04/29 07:11:19;;;;;;;9.50;3.33;;;15.00;1.00;;;;;;6211833;22;20698;-87
2022/04/29 07:13:51;;;;;;;11.13;3.40;;;15.30;1.00;;;;;;6215946;22;20420;-84
2022/04/29 07:16:49;;;;;;;10.73;3.23;;;15.40;1.00;;;;;;6212187;22;20487;-86
2022/04/29 07:19:47;;;;;;;17.17;3.97;;;15.50;1.00;;;;;;6179024;22;21194;-87
2022/04/29 07:22:57;;;;;;;15.43;3.57;;;15.70;1.00;;;;;;6187893;22;20432;-86
2022/04/29 07:25:51;;;;;;;13.63;3.40;;;15.90;1.00;;;;;;6216807;22;20421;-84
2022/04/29 07:43:09;;;;;;;10.20;2.70;;;16.50;1.00;;;;;;6208831;22;20437;-84
2022/04/29 07:45:51;;;;;;;11.40;2.60;;;16.50;1.00;;;;;;6196762;22;20440;-84
2022/04/29 07:48:22;;;;;;;9.60;2.50;;;16.60;1.00;;;;;;6207482;22;20467;-84
2022/04/29 07:50:49;;;;;;;13.10;3.70;;;16.60;1.00;;;;;;6208722;22;20459;-84
2022/04/29 07:53:31;;;;;;;10.23;2.90;;;16.60;1.00;;;;;;6190813;22;20440;-84
2022/04/29 07:56:08;;;;;;;10.17;2.83;;;16.70;1.00;;;;;;6207143;22;20432;-84
2022/04/29 07:58:39;;;;;;;12.30;3.33;;;16.80;1.00;;;;;;6208479;22;20738;-84
2022/04/29 08:01:09;;;;;;;14.30;2.90;;;17.00;1.00;;;;;;6204966;22;20529;-85
2022/04/29 08:03:48;;;;;;;18.43;4.00;;;17.30;1.00;;;;;;6206848;22;20488;-83
2022/04/29 08:09:09;;;;;;;10.73;2.20;;;17.70;1.00;;;;;;6206072;22;20452;-83
2022/04/29 08:11:47;;;;;;;9.47;2.60;;;17.80;1.00;;;;;;6203422;23;20492;-85
2022/04/29 08:14:20;;;;;;;12.17;3.93;;;18.10;1.00;;;;;;6174480;22;20465;-85
2022/04/29 08:16:59;;;;;;;9.77;2.43;;;18.00;1.00;;;;;;6147972;23;20415;-84
2022/04/29 08:19:41;;;;;;;8.57;2.60;;;18.00;1.00;;;;;;6146243;23;20449;-85
2022/04/29 08:27:40;;;;;;;10.83;2.50;;;18.30;1.00;;;;;;6163541;23;20525;-84
2022/04/29 08:33:28;;;;;;;11.70;3.30;;;18.00;1.00;;;;;;6166796;23;20524;-85
2022/04/29 08:42:49;;;;;;;16.37;4.70;;;18.20;1.00;;;;;;6031894;23;20500;-84
2022/04/29 08:45:18;;;;;;;8.90;3.53;;;18.40;1.00;;;;;;6146877;23;20422;-85
2022/04/29 08:47:49;;;;;;;15.47;4.70;;;18.50;1.00;;;;;;6154889;23;20851;-84
2022/04/29 08:50:19;;;;;;;11.57;4.07;;;18.60;1.00;;;;;;6146040;23;21253;-84
2022/04/29 08:52:50;;;;;;;13.13;4.27;;;18.80;1.00;;;;;;6145761;23;20432;-83
2022/04/29 09:01:00;;;;;;;10.73;3.90;;;19.40;1.00;;;;;;6149454;23;21213;-84
2022/04/29 09:03:31;;;;;;;11.30;3.27;;;19.30;1.00;;;;;;6156064;23;20446;-84
2022/04/29 09:05:59;;;;;;;12.83;4.10;;;19.40;1.00;;;;;;6148982;23;20404;-83
2022/04/29 09:09:17;;;;;;;10.60;4.23;;;19.60;1.00;;;;;;6143278;23;20531;-85
2022/04/29 09:11:49;;;;;;;13.37;4.40;;;19.90;1.00;;;;;;6149615;23;21311;-84
2022/04/29 09:18:08;;;;;;;11.97;4.80;;;19.70;1.00;;;;;;6013556;23;20440;-87
2022/04/29 09:30:10;;;;;;;14.53;4.50;;;20.10;1.00;;;;;;5987331;23;20904;-84
2022/04/29 09:33:17;;;;;;;10.00;4.53;;;20.50;1.00;;;;;;6012913;23;21358;-83
2022/04/29 09:43:01;;;;;;;;;;;;;;;;;;;;;
2022/04/29 09:45:50;;;;;;;10.00;4.90;;;22.70;1.00;;;;;;6034698;23;50840;-84
2022/04/29 09:49:09;;;;;;;12.23;4.37;;;23.10;1.00;;;;;;6136691;22;20493;-86
2022/04/29 09:58:39;;;;;;;11.40;4.60;;;25.90;1.00;;;;;;5991168;23;20446;-84
2022/04/29 10:04:01;;;;;;;11.37;5.00;;;25.30;1.00;;;;;;6102927;23;20435;-84
2022/04/29 10:07:07;;;;;;;;;;;;;;;;;;;;;
2022/04/29 10:10:09;;;;;;;;;;;;;;;;;;;;;
2022/04/29 10:12:49;;;;;;;11.63;4.37;;;27.60;1.00;;;;;;6183972;22;50383;-86
2022/04/29 10:15:48;;;;;;;10.60;3.83;;;28.40;1.00;;;;;;6211403;22;20451;-87
2022/04/29 10:21:18;;;;;;;9.70;4.40;;;29.80;1.00;;;;;;6134620;22;20421;-88
2022/04/29 10:23:59;;;;;;;18.60;6.60;;;29.90;1.00;;;;;;6196414;22;20520;-88
2022/04/29 10:27:01;;;;;;;11.20;5.00;;;29.90;1.00;;;;;;6207258;22;20957;-86
2022/04/29 10:29:40;;;;;;;10.03;5.50;;;30.30;1.00;;;;;;6204326;22;20443;-86
2022/04/29 10:32:12;;;;;;;11.37;5.43;;;30.70;1.00;;;;;;6208013;22;21002;-86
2022/04/29 10:34:39;;;;;;;11.83;4.90;;;30.60;1.00;;;;;;6204279;22;20439;-86
2022/04/29 10:37:18;;;;;;;12.90;5.63;;;30.70;1.00;;;;;;6209186;22;20419;-83
2022/04/29 10:40:10;;;;;;;12.37;5.33;;;30.80;1.00;;;;;;6208003;22;20452;-86
2022/04/29 10:43:11;;;;;;;12.43;5.67;;;30.10;1.00;;;;;;6210042;22;21038;-87
2022/04/29 10:46:31;;;;;;;11.50;5.40;;;29.80;1.00;;;;;;6208961;22;20433;-85
2022/04/29 10:49:31;;;;;;;10.33;5.10;;;30.40;1.00;;;;;;6209596;22;20512;-89
2022/04/29 10:55:31;;;;;;;10.50;5.00;;;30.70;1.00;;;;;;6175531;22;20443;-85
2022/04/29 10:58:21;;;;;;;12.60;5.60;;;30.90;1.00;;;;;;6214456;23;20468;-87
2022/04/29 11:01:31;;;;;;;11.97;5.37;;;31.40;1.00;;;;;;6211500;22;20852;-88
2022/04/29 11:04:51;;;;;;;;;;;;;;;;;;;;;
2022/04/29 12:08:47;;;;;;;12.03;5.80;;;33.20;1.00;;;;;;5408070;23;15304645;-86
2022/04/29 12:14:59;;;;;;;;;;;;;;;;;;;;;
2022/04/29 12:21:31;;;;;;;18.33;16.60;;;35.70;1.00;;;;;;6145498;23;20435;-87
2022/04/29 15:54:40;;;;;;;9.67;4.90;;;25.10;1.00;;;;;;5931920;23;20271;-86
2022/04/29 16:00:00;;;;;;;12.30;9.60;;;24.90;1.00;;;;;;6247168;22;21015;-85
2022/04/29 16:02:29;;;;;;;14.47;10.80;;;24.10;1.00;;;;;;6267827;22;20501;-82
2022/04/29 16:04:59;;;;;;;11.33;5.83;;;23.40;1.00;;;;;;6297324;22;21040;-82
2022/04/29 16:07:28;;;;;;;11.90;5.40;;;22.90;1.00;;;;;;6290767;22;20523;-82
2022/04/29 16:10:09;;;;;;;11.50;5.10;;;22.50;1.00;;;;;;6288217;22;20850;-83
2022/04/29 16:12:41;;;;;;;14.93;5.00;;;22.40;1.00;;;;;;6288838;22;20482;-82
2022/04/29 16:15:09;;;;;;;10.03;5.10;;;22.80;1.00;;;;;;6246197;22;20978;-85
2022/04/29 16:20:39;;;;;;;14.17;5.87;;;23.70;1.00;;;;;;6302913;22;20943;-82
2022/04/29 16:25:58;;;;;;;11.67;6.03;;;23.80;1.00;;;;;;6268731;22;21044;-81
2022/04/29 16:28:30;;;;;;;11.00;6.20;;;23.40;1.00;;;;;;6260258;22;20420;-85
2022/04/29 16:30:59;;;;;;;10.13;5.97;;;22.90;1.00;;;;;;6303911;22;21740;-82
2022/04/29 16:33:25;;;;;;;9.93;4.50;;;22.50;1.00;;;;;;6305481;22;20790;-83
2022/04/29 16:35:52;;;;;;;10.73;5.07;;;22.00;1.00;;;;;;6304375;22;20424;-83
2022/04/29 16:38:21;;;;;;;10.47;4.60;;;21.80;1.00;;;;;;6303100;22;20441;-84
2022/04/29 16:40:48;;;;;;;11.27;4.80;;;21.60;1.00;;;;;;6305869;22;21631;-85
2022/04/29 16:43:27;;;;;;;9.30;4.63;;;21.30;1.00;;;;;;6291231;22;20754;-83
2022/04/29 16:46:00;;;;;;;11.03;5.40;;;21.00;1.00;;;;;;6278292;22;20422;-83
2022/04/29 16:48:40;;;;;;;12.30;5.07;;;20.80;1.00;;;;;;6268732;22;20426;-83
2022/04/29 16:51:13;;;;;;;10.77;5.33;;;20.70;1.00;;;;;;6233380;22;20525;-82
2022/04/29 16:53:41;;;;;;;12.63;5.17;;;20.60;1.00;;;;;;6255044;22;20444;-83
2022/04/29 16:56:10;;;;;;;9.70;5.10;;;20.50;1.00;;;;;;6246967;22;20804;-83
2022/04/29 16:58:43;;;;;;;9.83;4.70;;;20.50;1.00;;;;;;6281680;22;20435;-82
2022/04/29 17:01:16;;;;;;;10.87;4.57;;;20.40;1.00;;;;;;6240765;22;20434;-84
2022/04/29 17:03:43;;;;;;;11.20;5.40;;;20.30;1.00;;;;;;6254278;22;20494;-83
2022/04/29 17:06:11;;;;;;;13.70;5.97;;;20.10;1.00;;;;;;6242746;22;20887;-83
2022/04/29 17:08:53;;;;;;;;;;;;;;;;;;;;;
2022/04/29 17:11:22;;;;;;;10.50;5.77;;;19.90;1.00;;;;;;6224218;22;38607;-87
2022/04/29 17:13:52;;;;;;;11.03;5.00;;;19.80;1.00;;;;;;6268880;22;20571;-82
2022/04/29 17:16:22;;;;;;;10.30;5.13;;;19.60;1.00;;;;;;6275881;22;20538;-82
2022/04/29 17:18:52;;;;;;;13.27;5.23;;;19.50;1.00;;;;;;6248162;22;20457;-84
2022/04/29 17:21:20;;;;;;;11.30;5.50;;;19.40;1.00;;;;;;6246621;22;20440;-84
2022/04/29 17:23:57;;;;;;;14.47;6.63;;;19.30;1.00;;;;;;6251457;22;20412;-82
2022/04/29 17:29:11;;;;;;;11.33;5.20;;;19.10;1.00;;;;;;6258864;22;20443;-83
2022/04/29 17:31:40;;;;;;;17.73;6.83;;;19.00;1.00;;;;;;6248505;22;20484;-83
2022/04/29 17:34:12;;;;;;;9.33;4.40;;;18.90;1.00;;;;;;6254598;22;20587;-83
2022/04/29 17:36:41;;;;;;;11.10;5.63;;;18.80;1.00;;;;;;6256827;22;20459;-84
2022/04/29 17:42:21;;;;;;;10.53;4.70;;;18.70;1.00;;;;;;6266854;22;20875;-82
2022/04/29 17:44:50;;;;;;;12.53;6.03;;;18.50;1.00;;;;;;6278249;22;20413;-86
2022/04/29 17:47:23;;;;;;;16.70;5.30;;;18.40;1.00;;;;;;6261962;22;20513;-83
2022/04/29 17:52:43;;;;;;;10.73;5.10;;;18.20;1.00;;;;;;6290567;22;20423;-83
2022/04/29 17:55:13;;;;;;;13.17;5.90;;;18.10;1.00;;;;;;6290311;22;20415;-83
2022/04/29 17:57:40;;;;;;;13.17;6.47;;;18.00;1.00;;;;;;6292277;22;20513;-84
2022/04/29 18:00:13;;;;;;;13.13;5.20;;;17.90;1.00;;;;;;6276247;22;20489;-82
2022/04/29 18:02:43;;;;;;;12.27;5.10;;;17.80;1.00;;;;;;6270798;22;20445;-82
2022/04/29 18:05:12;;;;;;;13.57;5.47;;;17.70;1.00;;;;;;6261697;22;20383;-85
2022/04/29 18:07:43;;;;;;;11.10;5.47;;;17.60;1.00;;;;;;6271281;22;20482;-83
2022/04/29 18:10:13;;;;;;;12.00;5.27;;;17.60;1.00;;;;;;6274322;22;20434;-83
2022/04/29 18:12:44;;;;;;;11.80;5.97;;;17.50;1.00;;;;;;6287310;22;20784;-82
2022/04/29 18:15:19;;;;;;;20.27;7.63;;;17.50;1.00;;;;;;6264415;22;20423;-84
2022/04/29 18:17:51;;;;;;;12.20;6.07;;;17.50;1.00;;;;;;6277790;22;20414;-82
2022/04/29 18:20:29;;;;;;;10.10;5.33;;;17.40;1.00;;;;;;6261174;22;20426;-84
2022/04/29 18:23:01;;;;;;;12.70;5.57;;;17.40;1.00;;;;;;6275440;22;21155;-83
2022/04/29 18:25:32;;;;;;;11.43;6.40;;;17.40;1.00;;;;;;6264274;22;20419;-81
2022/04/29 18:28:11;;;;;;;17.57;8.00;;;17.30;1.00;;;;;;6287823;22;20414;-83
2022/04/29 18:30:42;;;;;;;11.63;6.43;;;17.30;1.00;;;;;;6279254;22;20427;-83
2022/04/29 18:33:30;;;;;;;14.10;7.80;;;17.30;1.00;;;;;;6242802;22;20431;-83
2022/04/29 18:36:03;;;;;;;13.00;7.17;;;17.20;1.00;;;;;;6269897;22;20826;-83
2022/04/29 18:38:30;;;;;;;17.50;7.70;;;17.20;1.00;;;;;;6263892;22;20435;-82
2022/04/29 18:41:01;;;;;;;11.60;6.27;;;17.10;1.00;;;;;;6269965;22;20426;-81
2022/04/29 18:43:29;;;;;;;13.73;6.80;;;17.00;1.00;;;;;;6289303;22;20437;-82
2022/04/29 18:46:13;;;;;;;10.60;5.87;;;16.90;1.00;;;;;;6276858;22;20794;-82
2022/04/29 18:48:42;;;;;;;10.77;6.30;;;16.90;1.00;;;;;;6251019;22;20403;-85
2022/04/29 18:51:13;;;;;;;15.00;9.00;;;16.80;1.00;;;;;;6254254;22;20785;-83
2022/04/29 18:53:44;;;;;;;20.97;12.40;;;16.70;1.00;;;;;;6265507;22;20443;-85
2022/04/29 18:56:11;;;;;;;16.60;8.70;;;16.60;1.00;;;;;;6274459;22;20441;-83
2022/04/29 18:58:43;;;;;;;13.60;8.87;;;16.50;1.00;;;;;;6303112;22;20893;-82
2022/04/29 19:01:14;;;;;;;15.10;8.57;;;16.50;1.00;;;;;;6262772;22;20635;-82
2022/04/29 19:06:31;;;;;;;14.80;8.60;;;16.40;1.00;;;;;;6222909;22;20859;-83
2022/04/29 19:09:03;;;;;;;15.73;10.10;;;16.50;1.00;;;;;;6253947;22;20415;-84
2022/04/29 19:11:30;;;;;;;20.07;10.07;;;16.50;1.00;;;;;;6260068;22;20422;-84
2022/04/29 19:14:03;;;;;;;16.97;8.33;;;16.50;1.00;;;;;;6271276;22;20454;-82
2022/04/29 19:16:31;;;;;;;14.20;8.23;;;16.50;1.00;;;;;;6266021;22;20494;-82
2022/04/29 19:19:13;;;;;;;18.07;9.60;;;16.50;1.00;;;;;;6229628;22;20432;-83
2022/04/29 19:21:43;;;;;;;16.93;9.23;;;16.40;1.00;;;;;;6249328;22;20445;-86
2022/04/29 19:24:10;;;;;;;17.20;10.03;;;16.40;1.00;;;;;;6259220;22;20438;-82
2022/04/29 19:29:30;;;;;;;17.30;8.80;;;16.40;1.00;;;;;;6257673;22;20552;-84
2022/04/29 19:32:02;;;;;;;13.93;8.00;;;16.40;1.00;;;;;;6247204;22;20502;-82
2022/04/29 19:34:29;;;;;;;15.87;8.03;;;16.40;1.00;;;;;;6250916;22;20427;-83
2022/04/29 19:37:02;;;;;;;15.40;7.77;;;16.30;1.00;;;;;;6280935;22;20472;-84
2022/04/29 19:39:31;;;;;;;12.83;8.23;;;16.30;1.00;;;;;;6254416;22;20423;-83
2022/04/29 19:42:01;;;;;;;13.73;7.27;;;16.30;1.00;;;;;;6262066;22;20588;-81
2022/04/29 19:44:31;;;;;;;14.90;8.00;;;16.20;1.00;;;;;;6263081;22;20471;-82
2022/04/29 19:47:02;;;;;;;15.40;7.50;;;16.20;1.00;;;;;;6254803;22;20462;-83
2022/04/29 19:49:31;;;;;;;13.20;6.93;;;16.10;1.00;;;;;;6252858;22;20516;-83
2022/04/29 19:51:59;;;;;;;13.23;6.83;;;16.10;1.00;;;;;;6253112;22;20433;-83
2022/04/29 19:54:30;;;;;;;18.63;8.07;;;16.00;1.00;;;;;;6272440;22;21337;-83
2022/04/29 19:59:50;;;;;;;13.37;7.50;;;15.80;1.00;;;;;;6236683;22;20426;-87
2022/04/29 20:05:12;;;;;;;14.13;8.53;;;15.60;1.00;;;;;;6254939;22;20892;-84
2022/04/29 20:07:40;;;;;;;16.40;8.80;;;15.50;1.00;;;;;;6266804;22;21031;-84
2022/04/29 22:21:33;;;;;;;11.70;6.30;;;14.60;1.00;;;;;;6208770;22;20485;-86
2022/04/29 22:27:24;;;;;;;;;;;;;;;;;;;;;
2022/04/29 22:30:24;;;;;;;13.20;6.90;;;14.30;1.00;;;;;;6241659;22;40812;-86
2022/04/29 22:39:31;;;;;;;13.97;6.47;;;14.30;1.00;;;;;;6114067;22;20475;-87
2022/04/29 22:55:41;;;;;;;12.43;7.20;;;14.00;1.00;;;;;;5946422;23;20939;-86
2022/04/29 22:58:12;;;;;;;11.53;5.47;;;13.90;1.00;;;;;;5975404;23;20482;-86
2022/04/29 23:00:41;;;;;;;10.40;5.57;;;13.80;1.00;;;;;;6154141;22;21258;-86
2022/04/29 23:03:12;;;;;;;9.73;6.20;;;13.80;1.00;;;;;;6245388;22;20466;-85
2022/04/29 23:05:53;;;;;;;10.80;6.17;;;13.80;1.00;;;;;;6245100;22;20418;-85
2022/04/29 23:08:22;;;;;;;10.57;6.23;;;13.80;1.00;;;;;;6232829;22;20444;-84
2022/04/29 23:10:52;;;;;;;10.60;5.73;;;13.80;1.00;;;;;;6240637;22;21060;-85
2022/04/29 23:13:21;;;;;;;10.33;5.83;;;13.80;1.00;;;;;;6239370;22;20434;-86
2022/04/29 23:15:53;;;;;;;11.67;6.07;;;13.80;1.00;;;;;;6258015;22;20438;-85
2022/04/29 23:21:11;;;;;;;11.70;6.63;;;13.70;1.00;;;;;;6239306;22;20940;-88
2022/04/29 23:23:42;;;;;;;11.90;6.93;;;13.70;1.00;;;;;;6243770;22;20513;-86
2022/04/29 23:26:14;;;;;;;12.00;6.33;;;13.60;1.00;;;;;;6240148;22;20490;-86
2022/04/29 23:28:41;;;;;;;10.23;6.60;;;13.50;1.00;;;;;;6255836;22;20444;-87
2022/04/29 23:31:12;;;;;;;11.40;7.37;;;13.50;1.00;;;;;;6238757;22;20421;-85
2022/04/29 23:33:41;;;;;;;10.83;6.13;;;13.40;1.00;;;;;;6268287;22;21173;-85
2022/04/29 23:36:13;;;;;;;10.67;6.30;;;13.40;1.00;;;;;;6227825;22;20447;-87
2022/04/29 23:38:43;;;;;;;11.77;6.90;;;13.40;1.00;;;;;;6231902;22;21360;-87
2022/04/29 23:41:13;;;;;;;12.10;6.90;;;13.30;1.00;;;;;;6237151;22;20923;-85
2022/04/29 23:43:43;;;;;;;13.87;6.30;;;13.20;1.00;;;;;;6248860;22;20435;-86
2022/04/29 23:46:09;;;;;;;10.53;6.80;;;13.20;1.00;;;;;;6261748;22;20468;-87
2022/04/29 23:48:38;;;;;;;13.40;7.03;;;13.10;1.00;;;;;;6267695;22;20427;-85
2022/04/29 23:51:05;;;;;;;13.60;6.70;;;12.90;1.00;;;;;;6268303;22;20882;-85
2022/04/29 23:53:31;;;;;;;11.40;6.63;;;12.90;1.00;;;;;;6257029;22;20498;-86
2022/04/29 23:56:00;;;;;;;15.40;7.90;;;12.80;1.00;;;;;;6267206;22;20427;-86
2022/04/29 23:58:28;;;;;;;15.77;7.17;;;12.70;1.00;;;;;;6271679;22;20461;-83
